Time;durP1;ratioP1;P1;durP2;ratioP2;P2;SDS_P1;SDS_P2;PMS_P1;PMS_P2;Temp;Humidity;BMP_temperature;BMP_pressure;BME280_temperature;BME280_humidity;BME280_pressure;Samples;Min_cycle;Max_cycle;Signal;HPM_P1;HPM_P2
2021/11/27 00:04:07;;;;;;;63.98;29.02;;;;;;;1.81;99.33;96634.70;4514500;77;21037;-87
2021/11/27 00:10:13;;;;;;;64.00;28.83;;;;;;;1.78;99.25;96646.24;4513997;77;22213;-87
2021/11/27 00:16:15;;;;;;;43.50;20.60;;;;;;;1.76;99.36;96649.31;4516083;77;21058;-87
2021/11/27 00:22:17;;;;;;;57.48;25.40;;;;;;;1.74;99.28;96654.89;4509331;77;21519;-88
2021/11/27 00:28:18;;;;;;;52.08;24.12;;;;;;;1.60;99.25;96662.27;4513256;77;21501;-87
2021/11/27 00:34:20;;;;;;;54.23;24.70;;;;;;;1.57;99.38;96677.28;4511860;77;21039;-87
2021/11/27 00:40:23;;;;;;;55.52;24.47;;;;;;;1.53;99.27;96687.25;4509818;77;21346;-87
2021/11/27 00:46:24;;;;;;;45.88;23.02;;;;;;;1.52;99.33;96696.50;4511771;77;21516;-86
2021/11/27 00:52:25;;;;;;;36.88;21.25;;;;;;;1.46;99.38;96694.50;4510551;77;21073;-87
2021/11/27 00:58:27;;;;;;;39.92;19.80;;;;;;;1.48;99.40;96707.05;4513078;77;21038;-86
2021/11/27 01:04:30;;;;;;;40.35;19.20;;;;;;;1.44;99.18;96710.30;4514022;77;21009;-88
2021/11/27 01:10:38;;;;;;;35.15;18.12;;;;;;;1.41;99.27;96712.36;4516670;77;21090;-87
2021/11/27 01:16:44;;;;;;;34.10;17.02;;;;;;;1.37;99.14;96709.64;4512665;77;21076;-85
2021/11/27 01:22:47;;;;;;;30.40;16.50;;;;;;;1.36;99.11;96712.71;4509889;77;21076;-86
2021/11/27 01:28:49;;;;;;;29.82;16.00;;;;;;;1.35;99.26;96722.71;4513639;77;21029;-87
2021/11/27 01:34:51;;;;;;;30.00;14.40;;;;;;;1.32;99.06;96715.37;4517051;77;21025;-86
2021/11/27 01:40:55;;;;;;;28.92;15.30;;;;;;;1.26;99.09;96712.80;4518193;77;21025;-86
2021/11/27 01:46:58;;;;;;;25.50;14.23;;;;;;;1.27;99.14;96713.00;4432606;78;21038;-87
2021/11/27 01:52:59;;;;;;;26.07;14.93;;;;;;;1.27;99.09;96711.65;4352989;80;21655;-86
2021/11/27 01:59:01;;;;;;;26.33;15.55;;;;;;;1.29;99.03;96709.37;4364699;79;21041;-86
2021/11/27 02:05:05;;;;;;;26.30;14.30;;;;;;;1.32;99.13;96703.23;4375508;81;21053;-87
2021/11/27 02:11:08;;;;;;;24.23;13.40;;;;;;;1.33;99.12;96694.59;4370629;79;21031;-86
2021/11/27 02:17:13;;;;;;;28.52;15.60;;;;;;;1.31;99.12;96687.44;4373252;79;21611;-86
2021/11/27 02:23:15;;;;;;;24.47;13.50;;;;;;;1.31;99.27;96694.95;4373508;79;21514;-86
2021/11/27 02:29:22;;;;;;;26.35;14.73;;;;;;;1.38;99.30;96695.58;4368657;79;21022;-88
2021/11/27 02:35:23;;;;;;;27.98;14.50;;;;;;;1.38;99.10;96698.27;4382327;79;21541;-87
2021/11/27 02:41:26;;;;;;;30.65;16.37;;;;;;;1.40;99.03;96714.30;4368497;79;21030;-88
2021/11/27 02:47:28;;;;;;;36.03;17.10;;;;;;;1.42;99.18;96701.80;4361218;79;21027;-91
2021/11/27 02:53:29;;;;;;;28.45;16.52;;;;;;;1.38;98.93;96700.41;4381424;79;21065;-87
2021/11/27 02:59:31;;;;;;;30.02;17.02;;;;;;;1.36;98.90;96717.52;4372632;79;21644;-88
2021/11/27 03:05:33;;;;;;;30.85;18.50;;;;;;;1.39;98.83;96726.80;4378088;79;21037;-88
2021/11/27 03:11:35;;;;;;;35.73;19.57;;;;;;;1.39;98.87;96745.08;4372680;79;22193;-89
2021/11/27 03:17:37;;;;;;;37.38;20.65;;;;;;;1.37;98.86;96762.22;4369982;79;21043;-89
2021/11/27 03:23:38;;;;;;;30.82;17.82;;;;;;;1.34;98.68;96771.59;4387421;79;21505;-87
2021/11/27 03:29:43;;;;;;;34.33;19.20;;;;;;;1.35;98.96;96771.80;4378548;79;21018;-86
2021/11/27 03:35:44;;;;;;;32.55;17.07;;;;;;;1.33;98.59;96782.19;4381381;79;21018;-87
2021/11/27 03:41:46;;;;;;;29.50;16.55;;;;;;;1.31;98.79;96787.16;4377547;79;20992;-87
2021/11/27 03:48:13;;;;;;;33.23;18.65;;;;;;;1.33;98.78;96801.06;4372463;79;21062;-87
2021/11/27 03:54:23;;;;;;;32.55;18.00;;;;;;;1.34;98.92;96807.98;4373551;79;21029;-86
2021/11/27 04:00:27;;;;;;;31.55;18.48;;;;;;;1.39;98.93;96815.76;4372312;79;21073;-87
2021/11/27 04:06:30;;;;;;;37.15;19.75;;;;;;;1.44;98.84;96823.53;4374676;79;21002;-86
2021/11/27 04:12:32;;;;;;;37.13;19.87;;;;;;;1.48;98.87;96836.47;4376324;79;21057;-87
2021/11/27 04:18:34;;;;;;;32.98;18.85;;;;;;;1.51;98.76;96845.16;4382918;79;21014;-86
2021/11/27 04:24:39;;;;;;;29.70;17.50;;;;;;;1.52;98.85;96846.70;4374316;79;21059;-86
2021/11/27 04:30:43;;;;;;;29.25;17.00;;;;;;;1.55;98.73;96858.89;4370974;79;21093;-86
2021/11/27 04:36:45;;;;;;;28.83;14.25;;;;;;;1.63;98.83;96850.90;4359752;79;21042;-86
2021/11/27 04:42:48;;;;;;;30.43;16.10;;;;;;;1.65;98.70;96857.47;4370178;79;21589;-87
2021/11/27 04:48:50;;;;;;;26.00;13.72;;;;;;;1.66;98.77;96854.96;4369178;79;21074;-87
2021/11/27 04:54:52;;;;;;;26.23;13.95;;;;;;;1.66;98.69;96855.55;4345698;79;22147;-89
2021/11/27 05:00:55;;;;;;;23.27;14.35;;;;;;;1.70;98.70;96854.45;4371298;79;21000;-86
2021/11/27 05:07:02;;;;;;;27.87;14.87;;;;;;;1.72;98.51;96858.91;4367174;79;21622;-88
2021/11/27 05:13:05;;;;;;;28.10;14.18;;;;;;;1.75;98.43;96866.27;4359187;79;22081;-87
2021/11/27 05:19:08;;;;;;;27.20;15.43;;;;;;;1.80;98.51;96870.55;4369029;79;21088;-89
2021/11/27 05:25:14;;;;;;;25.10;15.08;;;;;;;1.79;98.41;96877.85;4366369;79;21015;-87
2021/11/27 05:31:34;;;;;;;20.40;13.60;;;;;;;1.76;98.41;96887.25;4364205;79;21038;-88
2021/11/27 05:37:37;;;;;;;25.05;14.47;;;;;;;1.77;98.42;96880.73;4358062;79;21390;-88
2021/11/27 05:43:38;;;;;;;22.73;13.65;;;;;;;1.83;98.44;96878.69;4360712;79;21096;-89
2021/11/27 05:49:41;;;;;;;19.45;11.83;;;;;;;1.85;98.14;96882.36;4361125;79;21030;-87
2021/11/27 05:55:51;;;;;;;19.27;12.25;;;;;;;1.70;98.22;96890.07;4359624;79;21011;-87
2021/11/27 06:01:53;;;;;;;20.75;12.95;;;;;;;1.61;98.42;96902.50;4366288;79;20999;-85
2021/11/27 06:07:55;;;;;;;20.97;12.68;;;;;;;1.71;98.56;96904.54;4355170;79;21026;-84
2021/11/27 06:13:57;;;;;;;21.65;13.75;;;;;;;1.67;98.57;96914.52;4371968;79;21022;-84
2021/11/27 06:19:58;;;;;;;20.68;12.55;;;;;;;1.69;98.85;96918.98;4379598;80;21535;-85
2021/11/27 06:26:00;;;;;;;25.70;13.08;;;;;;;1.80;98.85;96929.89;4382117;80;21020;-88
2021/11/27 06:32:08;;;;;;;24.25;13.80;;;;;;;1.82;98.82;96927.62;4383608;80;21050;-84
2021/11/27 06:38:07;;;;;;;25.70;13.75;;;;;;;1.84;98.84;96925.30;4371686;80;21084;-89
2021/11/27 06:44:09;;;;;;;26.30;14.45;;;;;;;1.89;98.82;96922.28;4302003;81;20989;-85
2021/11/27 06:50:13;;;;;;;22.37;12.95;;;;;;;2.02;98.93;96937.09;4382964;80;22089;-85
2021/11/27 06:56:14;;;;;;;24.52;14.25;;;;;;;2.06;98.74;96941.95;4387728;80;21018;-85
2021/11/27 07:02:16;;;;;;;24.15;14.85;;;;;;;2.11;98.55;96947.02;4381903;80;21754;-86
2021/11/27 07:08:34;;;;;;;25.92;14.87;;;;;;;2.17;98.59;96961.73;4373645;80;21069;-85
2021/11/27 07:14:40;;;;;;;22.95;13.60;;;;;;;2.25;98.61;96956.06;4371165;79;21558;-85
2021/11/27 07:20:42;;;;;;;29.55;14.98;;;;;;;2.35;98.43;96962.13;4363511;79;21359;-85
2021/11/27 07:26:44;;;;;;;28.83;16.48;;;;;;;2.39;98.49;96979.73;4371539;79;21605;-87
2021/11/27 07:32:45;;;;;;;30.95;16.85;;;;;;;2.43;98.69;96977.83;4370430;79;20987;-85
2021/11/27 07:38:47;;;;;;;26.60;15.55;;;;;;;2.51;98.19;96987.00;4365876;79;21026;-84
2021/11/27 07:44:49;;;;;;;26.48;16.80;;;;;;;2.51;97.97;96987.00;4361488;79;21588;-89
2021/11/27 07:51:10;;;;;;;28.50;15.78;;;;;;;2.63;98.01;96988.08;4253461;83;21135;-87
2021/11/27 07:57:14;;;;;;;27.42;15.35;;;;;;;2.78;97.77;96985.73;4331999;80;21015;-88
2021/11/27 08:03:15;;;;;;;29.48;16.17;;;;;;;2.80;97.65;96979.36;4341324;80;21058;-87
2021/11/27 08:09:17;;;;;;;28.38;16.65;;;;;;;2.85;97.20;96984.42;4349440;80;21656;-92
2021/11/27 08:15:19;;;;;;;29.75;17.50;;;;;;;2.90;97.32;96992.20;4433971;78;21028;-89
2021/11/27 08:21:20;;;;;;;28.85;16.50;;;;;;;2.94;97.26;96994.94;4437884;78;21550;-89
2021/11/27 08:27:27;;;;;;;34.73;19.42;;;;;;;2.97;97.07;97003.09;4352513;80;21823;-89
2021/11/27 08:33:26;;;;;;;28.87;17.77;;;;;;;2.94;96.95;97004.40;4368540;79;21069;-88
2021/11/27 08:39:29;;;;;;;31.80;18.60;;;;;;;3.00;97.01;97016.42;4364669;79;21129;-89
2021/11/27 08:45:31;;;;;;;31.23;18.70;;;;;;;3.05;96.85;97038.47;4364495;79;21043;-90
2021/11/27 08:51:37;;;;;;;52.65;25.88;;;;;;;3.14;96.61;97053.04;4428527;79;21056;-89
2021/11/27 08:57:37;;;;;;;34.98;21.07;;;;;;;3.12;96.72;97056.12;4431157;78;21086;-90
2021/11/27 09:03:42;;;;;;;35.92;20.30;;;;;;;3.19;96.82;97048.05;4429114;79;21043;-90
2021/11/27 09:09:47;;;;;;;34.33;19.98;;;;;;;3.37;96.69;97059.02;4333945;80;21571;-89
2021/11/27 09:15:49;;;;;;;36.88;20.82;;;;;;;3.77;96.82;97058.17;4339648;80;21390;-89
2021/11/27 09:21:51;;;;;;;35.38;20.82;;;;;;;4.31;96.56;97056.73;4352462;80;21009;-90
2021/11/27 09:27:52;;;;;;;32.65;19.12;;;;;;;4.88;97.06;97057.13;4355197;80;21046;-90
2021/11/27 09:33:54;;;;;;;32.10;19.67;;;;;;;5.10;95.73;97053.30;4347293;80;20977;-89
2021/11/27 09:39:55;;;;;;;33.38;19.57;;;;;;;5.12;94.37;97048.25;4373206;79;20955;-90
2021/11/27 09:45:57;;;;;;;35.40;20.05;;;;;;;5.08;95.31;97049.41;4364091;79;21380;-90
2021/11/27 09:51:58;;;;;;;32.25;19.42;;;;;;;4.97;94.86;97056.75;4367899;79;21062;-90
2021/11/27 09:58:00;;;;;;;39.18;23.80;;;;;;;5.57;95.49;97055.66;4383294;79;21518;-92
2021/11/27 10:04:06;;;;;;;37.40;23.22;;;;;;;6.44;95.19;97053.95;4376274;79;21078;-90
2021/11/27 10:10:12;;;;;;;34.85;20.52;;;;;;;6.75;93.04;97068.59;4377682;79;21088;-92
2021/11/27 10:16:13;;;;;;;38.83;23.20;;;;;;;6.42;92.19;97063.09;4369085;80;21038;-91
2021/11/27 10:22:22;;;;;;;41.50;23.75;;;;;;;6.32;92.23;97081.56;4383589;81;21037;-91
2021/11/27 10:28:24;;;;;;;38.73;23.18;;;;;;;6.23;91.52;97067.02;4381153;79;21035;-90
2021/11/27 10:34:26;;;;;;;39.38;24.23;;;;;;;5.89;91.47;97074.64;4379799;80;21046;-91
2021/11/27 10:40:30;;;;;;;46.63;24.07;;;;;;;5.26;89.88;97072.68;4382327;80;21045;-90
2021/11/27 10:46:38;;;;;;;38.95;21.35;;;;;;;5.46;90.54;97066.31;4433362;78;21101;-90
2021/11/27 10:52:40;;;;;;;36.85;21.57;;;;;;;5.89;91.63;97064.57;4434718;79;21062;-92
2021/11/27 10:59:05;;;;;;;29.30;17.52;;;;;;;6.18;90.02;97071.52;4441140;78;21041;-90
2021/11/27 11:05:14;;;;;;;27.22;15.03;;;;;;;6.05;89.83;97064.16;4432143;78;21083;-90
2021/11/27 11:11:26;;;;;;;27.27;15.90;;;;;;;6.09;89.10;97055.43;4408762;80;21767;-88
2021/11/27 11:17:27;;;;;;;30.48;16.17;;;;;;;6.30;88.97;97059.43;4415846;80;21039;-90
2021/11/27 11:23:33;;;;;;;30.12;17.62;;;;;;;6.47;87.06;97060.56;4421982;78;21026;-88
2021/11/27 11:29:52;;;;;;;30.68;17.37;;;;;;;6.26;86.49;97049.92;4438216;78;21556;-89
2021/11/27 11:35:53;;;;;;;6.85;4.47;;;;;;;6.24;87.72;97059.65;4382308;78;21083;-88
2021/11/27 11:42:02;;;;;;;8.13;3.62;;;;;;;6.18;84.69;97057.93;4421983;78;21089;-87
2021/11/27 11:48:07;;;;;;;7.00;3.45;;;;;;;6.05;84.46;97056.00;4430550;78;21020;-89
2021/11/27 11:54:10;;;;;;;7.45;4.78;;;;;;;5.97;83.90;97062.61;4424075;78;21074;-87
2021/11/27 12:00:34;;;;;;;8.78;4.90;;;;;;;5.88;84.05;97052.74;4417150;78;22241;-87
2021/11/27 12:06:38;;;;;;;9.50;5.22;;;;;;;5.68;83.06;97051.00;4444095;78;21074;-91
2021/11/27 12:12:42;;;;;;;11.45;5.55;;;;;;;5.49;81.81;97047.89;4442246;78;21049;-89
2021/11/27 12:18:58;;;;;;;10.23;5.25;;;;;;;5.46;81.80;97060.31;4402114;78;21059;-91
2021/11/27 12:25:23;;;;;;;12.35;5.70;;;;;;;5.46;81.68;97069.03;4437235;78;20995;-88
2021/11/27 12:31:42;;;;;;;10.18;6.00;;;;;;;5.42;79.82;97062.23;4427377;80;21079;-88
2021/11/27 12:37:43;;;;;;;10.13;5.87;;;;;;;5.48;81.53;97072.89;4429253;78;21051;-89
2021/11/27 12:44:19;;;;;;;11.63;4.97;;;;;;;5.48;80.72;97082.39;4433812;78;21032;-90
2021/11/27 12:50:22;;;;;;;10.63;5.42;;;;;;;5.47;80.26;97076.78;4428798;78;21063;-91
2021/11/27 12:56:26;;;;;;;10.43;5.33;;;;;;;5.47;79.84;97086.84;4420318;78;21020;-89
2021/11/27 13:02:28;;;;;;;8.80;5.05;;;;;;;5.43;79.61;97093.66;4427435;78;21094;-89
2021/11/27 13:08:33;;;;;;;14.50;6.25;;;;;;;5.42;79.84;97083.19;4422237;79;21665;-91
2021/11/27 13:14:34;;;;;;;9.93;5.92;;;;;;;5.35;79.54;97081.23;4408411;78;21661;-91
2021/11/27 13:20:50;;;;;;;13.15;6.28;;;;;;;5.36;79.48;97079.28;4363368;79;21038;-89
2021/11/27 13:26:51;;;;;;;15.18;6.92;;;;;;;5.38;79.83;97072.89;4418647;79;21013;-89
2021/11/27 13:32:54;;;;;;;14.07;6.87;;;;;;;5.41;79.40;97084.33;4428885;78;21113;-89
2021/11/27 13:39:18;;;;;;;11.73;6.28;;;;;;;5.39;79.18;97088.00;4317634;80;21077;-90
2021/11/27 13:45:24;;;;;;;11.10;7.40;;;;;;;5.35;78.29;97083.95;4338770;80;21626;-90
2021/11/27 13:51:25;;;;;;;11.70;6.78;;;;;;;5.33;79.28;97083.55;4336096;80;21085;-89
2021/11/27 13:57:28;;;;;;;17.73;9.50;;;;;;;5.27;78.89;97081.60;4343933;80;21093;-89
2021/11/27 14:03:33;;;;;;;16.57;9.85;;;;;;;5.15;78.71;97082.77;4347734;80;21041;-88
2021/11/27 14:09:56;;;;;;;15.68;7.65;;;;;;;5.05;78.48;97074.59;4348501;80;21026;-89
2021/11/27 14:15:58;;;;;;;21.15;8.00;;;;;;;4.94;78.46;97077.86;4336822;80;21090;-89
2021/11/27 14:22:06;;;;;;;14.30;7.70;;;;;;;4.86;79.13;97089.27;4317846;81;21368;-89
2021/11/27 14:28:11;;;;;;;17.67;8.05;;;;;;;4.81;79.74;97087.70;4316676;82;21015;-88
2021/11/27 14:34:22;;;;;;;21.43;9.00;;;;;;;4.77;79.23;97095.06;4324308;82;21061;-89
2021/11/27 14:40:24;;;;;;;17.57;8.98;;;;;;;4.76;79.02;97089.42;4326865;81;21099;-89
2021/11/27 14:47:00;;;;;;;25.12;12.25;;;;;;;4.73;79.06;97092.91;4316791;82;21655;-89
2021/11/27 14:53:01;;;;;;;19.23;10.90;;;;;;;4.64;78.90;97094.41;4368239;79;21734;-88
2021/11/27 14:59:03;;;;;;;18.55;9.93;;;;;;;4.49;79.16;97091.45;4368124;79;21117;-89
2021/11/27 15:05:08;;;;;;;34.00;15.70;;;;;;;4.35;79.46;97093.50;4365839;79;21042;-88
2021/11/27 15:11:09;;;;;;;162.82;72.42;;;;;;;4.24;79.39;97083.22;4370073;79;21599;-87
2021/11/27 15:17:12;;;;;;;49.53;25.20;;;;;;;4.19;79.43;97103.10;4351106;80;21064;-87
2021/11/27 15:23:15;;;;;;;49.03;22.13;;;;;;;4.25;79.37;97098.88;4372999;79;21066;-90
2021/11/27 15:29:18;;;;;;;35.80;18.52;;;;;;;4.24;79.59;97102.19;4385917;79;21030;-88
2021/11/27 15:35:20;;;;;;;44.53;20.12;;;;;;;4.19;79.31;97109.88;4386350;79;21431;-88
2021/11/27 15:41:21;;;;;;;34.43;18.48;;;;;;;4.11;79.85;97084.69;4377718;79;21019;-87
2021/11/27 15:47:24;;;;;;;55.23;30.12;;;;;;;4.00;79.86;97085.77;4382989;79;21034;-88
2021/11/27 15:53:25;;;;;;;88.58;46.23;;;;;;;3.90;79.69;97067.55;4391203;79;20977;-87
2021/11/27 15:59:27;;;;;;;43.28;23.57;;;;;;;3.77;79.47;97068.43;4386696;79;21737;-86
2021/11/27 16:05:29;;;;;;;128.68;52.80;;;;;;;3.65;79.94;97063.30;4383077;79;21533;-86
2021/11/27 16:11:32;;;;;;;58.08;28.60;;;;;;;3.71;80.41;97071.86;4373264;79;21055;-87
2021/11/27 16:17:34;;;;;;;56.00;25.85;;;;;;;3.71;80.78;97072.61;4381729;79;21031;-87
2021/11/27 16:23:36;;;;;;;58.25;27.67;;;;;;;3.77;80.92;97078.47;4380550;79;21068;-87
2021/11/27 16:29:38;;;;;;;61.00;28.38;;;;;;;3.74;81.30;97080.58;4381403;79;21066;-85
2021/11/27 16:35:39;;;;;;;64.60;32.00;;;;;;;3.71;81.07;97078.62;4384797;79;21102;-85
2021/11/27 16:41:41;;;;;;;77.37;35.88;;;;;;;3.65;81.82;97093.66;4350314;79;35327;-84
2021/11/27 16:47:42;;;;;;;70.40;37.48;;;;;;;3.67;82.05;97088.63;4226703;82;21016;-85
2021/11/27 16:53:44;;;;;;;62.80;34.03;;;;;;;3.66;82.33;97093.84;4226472;82;21061;-85
2021/11/27 16:59:46;;;;;;;279.38;131.65;;;;;;;3.65;82.64;97102.53;4222569;82;21018;-84
2021/11/27 17:05:52;;;;;;;112.03;55.35;;;;;;;3.61;82.50;97106.36;4222791;82;21095;-85
2021/11/27 17:11:51;;;;;;;71.00;36.77;;;;;;;3.59;82.80;97108.66;4221216;82;21053;-85
2021/11/27 17:17:53;;;;;;;67.12;35.58;;;;;;;3.57;82.82;97101.52;4208987;83;21571;-84
2021/11/27 17:23:55;;;;;;;75.03;36.23;;;;;;;3.54;83.30;97112.49;4242616;82;31187;-84
2021/11/27 17:29:56;;;;;;;78.07;40.50;;;;;;;3.55;83.38;97124.88;4256653;82;21088;-85
2021/11/27 17:35:58;;;;;;;100.53;44.73;;;;;;;3.50;83.24;97118.45;4240323;82;21953;-84
2021/11/27 17:42:00;;;;;;;85.07;43.15;;;;;;;3.48;83.69;97122.10;4265070;82;21022;-84
2021/11/27 17:48:02;;;;;;;95.70;46.05;;;;;;;3.48;84.01;97130.22;4268054;82;21662;-85
2021/11/27 17:54:06;;;;;;;100.95;48.33;;;;;;;3.48;84.45;97149.16;4257079;82;21076;-85
2021/11/27 18:00:10;;;;;;;110.45;52.65;;;;;;;3.52;85.02;97155.95;4254895;82;22327;-85
2021/11/27 18:06:11;;;;;;;98.03;46.88;;;;;;;3.49;85.23;97167.53;4278615;82;21581;-84
2021/11/27 18:12:14;;;;;;;104.07;52.27;;;;;;;3.43;85.38;97170.38;4268722;82;21034;-84
2021/11/27 18:18:15;;;;;;;84.47;46.55;;;;;;;3.34;87.54;97166.60;4255977;82;21069;-84
2021/11/27 18:24:34;;;;;;;108.00;54.60;;;;;;;3.26;87.36;97174.44;4264007;82;21560;-84
2021/11/27 18:30:35;;;;;;;91.90;43.00;;;;;;;3.33;87.41;97178.58;4280909;78;25687;-84
2021/11/27 18:36:36;;;;;;;89.92;45.65;;;;;;;3.32;87.45;97174.30;4285985;81;20975;-84
2021/11/27 18:42:38;;;;;;;84.62;43.40;;;;;;;3.37;87.83;97189.44;4278312;81;21034;-85
2021/11/27 18:48:40;;;;;;;83.82;43.00;;;;;;;3.36;88.03;97212.20;4171231;81;9999989;-84
2021/11/27 18:54:43;;;;;;;81.20;42.17;;;;;;;3.41;88.57;97213.23;4275669;81;21074;-86
2021/11/27 19:00:45;;;;;;;82.30;42.40;;;;;;;3.44;88.73;97216.55;4289123;81;21076;-85
2021/11/27 19:06:48;;;;;;;84.70;40.10;;;;;;;3.49;88.85;97226.47;4297625;81;21097;-85
2021/11/27 19:12:49;;;;;;;73.12;38.28;;;;;;;3.46;88.99;97220.42;4287680;81;21632;-84
2021/11/27 19:18:51;;;;;;;84.58;37.63;;;;;;;3.39;89.08;97229.83;4264124;81;21089;-85
2021/11/27 19:24:52;;;;;;;60.45;33.73;;;;;;;3.45;88.99;97234.33;4251194;81;22517;-86
2021/11/27 19:30:58;;;;;;;62.48;33.48;;;;;;;3.37;89.67;97237.53;4263871;81;21442;-84
2021/11/27 19:37:00;;;;;;;59.90;31.80;;;;;;;3.34;89.70;97246.95;4241624;81;21070;-86
2021/11/27 19:43:01;;;;;;;53.30;29.35;;;;;;;3.43;90.10;97248.22;4253982;81;21062;-85
2021/11/27 19:49:05;;;;;;;55.15;28.52;;;;;;;3.46;89.97;97241.31;4255330;81;22100;-85
2021/11/27 19:55:07;;;;;;;52.00;27.65;;;;;;;3.37;89.77;97246.23;4264524;81;21089;-85
2021/11/27 20:01:09;;;;;;;50.25;27.40;;;;;;;3.43;90.31;97247.46;4271351;81;21113;-86
2021/11/27 20:07:11;;;;;;;57.83;30.15;;;;;;;3.47;90.47;97244.20;4252165;82;21090;-85
2021/11/27 20:13:15;;;;;;;75.72;39.60;;;;;;;3.46;90.02;97254.23;4258224;81;21048;-84
2021/11/27 20:19:17;;;;;;;70.32;36.40;;;;;;;3.29;90.13;97260.83;4268389;81;21640;-86
2021/11/27 20:25:18;;;;;;;59.27;31.77;;;;;;;3.35;90.97;97260.70;4281941;81;22259;-85
2021/11/27 20:31:22;;;;;;;61.13;33.15;;;;;;;3.26;90.57;97259.62;4296574;81;21085;-85
2021/11/27 20:37:24;;;;;;;63.83;33.53;;;;;;;3.36;91.24;97267.66;4279873;81;21128;-85
2021/11/27 20:43:26;;;;;;;66.80;34.18;;;;;;;3.41;91.17;97276.80;4293168;81;21049;-85
2021/11/27 20:49:28;;;;;;;59.20;32.48;;;;;;;3.42;91.60;97280.48;4284789;81;21073;-85
2021/11/27 20:55:31;;;;;;;66.75;34.40;;;;;;;3.51;91.66;97282.32;4272401;81;21094;-85
2021/11/27 21:01:32;;;;;;;60.38;33.55;;;;;;;3.57;91.64;97282.78;4282405;81;21604;-84
2021/11/27 21:07:34;;;;;;;61.33;33.90;;;;;;;3.47;91.82;97281.52;4283201;81;21073;-86
2021/11/27 21:13:37;;;;;;;72.37;37.17;;;;;;;3.49;92.08;97272.46;4286927;81;21709;-85
2021/11/27 21:19:38;;;;;;;68.83;38.55;;;;;;;3.41;91.98;97264.63;4278607;81;21591;-86
2021/11/27 21:25:41;;;;;;;77.42;39.53;;;;;;;3.42;92.02;97262.91;4278583;81;21112;-85
2021/11/27 21:31:44;;;;;;;70.95;37.20;;;;;;;3.38;92.34;97249.92;4278569;81;21053;-85
2021/11/27 21:37:46;;;;;;;75.28;39.20;;;;;;;3.36;92.30;97262.24;4277258;81;21044;-85
2021/11/27 21:43:48;;;;;;;71.02;37.65;;;;;;;3.27;92.19;97262.55;4281585;81;21041;-86
2021/11/27 21:49:49;;;;;;;71.53;38.10;;;;;;;3.26;92.69;97266.38;4268037;82;21073;-85
2021/11/27 21:55:51;;;;;;;76.77;41.05;;;;;;;3.22;92.61;97253.41;4286469;81;21002;-85
2021/11/27 22:01:53;;;;;;;104.58;50.50;;;;;;;3.10;92.12;97249.59;4287881;81;21063;-85
2021/11/27 22:07:54;;;;;;;79.05;40.67;;;;;;;2.95;92.85;97237.82;4264196;81;20994;-85
2021/11/27 22:13:56;;;;;;;93.47;46.85;;;;;;;2.87;92.85;97228.06;4310291;81;21108;-85
2021/11/27 22:19:58;;;;;;;97.37;51.10;;;;;;;2.85;93.02;97243.86;4277369;81;21093;-86
2021/11/27 22:26:01;;;;;;;106.20;51.33;;;;;;;2.89;92.90;97243.91;4257036;81;21121;-85
2021/11/27 22:32:04;;;;;;;95.03;47.83;;;;;;;2.80;93.10;97233.36;4257677;82;21099;-84
2021/11/27 22:38:06;;;;;;;104.23;51.18;;;;;;;2.69;93.17;97228.39;4249769;81;21062;-84
2021/11/27 22:44:08;;;;;;;96.28;48.13;;;;;;;2.51;92.82;97223.89;4245305;82;21541;-84
2021/11/27 22:50:10;;;;;;;91.57;47.83;;;;;;;2.37;92.97;97225.82;4263748;81;21089;-85
2021/11/27 22:56:12;;;;;;;116.42;64.37;;;;;;;2.29;93.27;97234.95;4257926;81;21010;-85
2021/11/27 23:02:15;;;;;;;103.45;52.88;;;;;;;2.25;93.61;97234.14;4261018;82;21038;-85
2021/11/27 23:08:16;;;;;;;112.00;56.00;;;;;;;2.08;93.08;97227.11;4258964;81;21086;-85
2021/11/27 23:14:18;;;;;;;108.83;55.98;;;;;;;1.98;93.62;97235.80;4255657;82;21561;-84
2021/11/27 23:20:22;;;;;;;113.80;57.10;;;;;;;1.96;93.91;97228.66;4292098;81;20983;-87
2021/11/27 23:26:24;;;;;;;112.60;55.25;;;;;;;1.98;93.99;97231.19;4297837;81;21105;-85
2021/11/27 23:32:27;;;;;;;120.57;59.88;;;;;;;1.95;93.82;97241.36;4285480;81;21089;-85
2021/11/27 23:38:28;;;;;;;113.17;58.25;;;;;;;1.96;94.16;97230.00;4304007;81;21037;-86
2021/11/27 23:44:30;;;;;;;112.47;55.98;;;;;;;1.95;94.16;97225.17;4286738;81;21129;-85
2021/11/27 23:50:31;;;;;;;122.87;62.62;;;;;;;1.93;94.57;97210.49;4276732;81;21045;-86
2021/11/27 23:56:39;;;;;;;129.07;65.87;;;;;;;1.90;93.95;97207.93;4264598;81;21041;-85
